Cliffside, North Carolina
Current Conditions -  °F | °C
As of 4:15 PM on Wednesday 26 Nov 2014 (Local Time) from KEHO Reporting Station
Clear Clear  
Wind Chill: 52°   Ceiling: Unl
Heat Index: 52°   Visibility: 10mi
Dew Point: 40°   Wind: 0mph
Humidity: 62%   Direction: NA
Pressure: 29.99"   Gusts: NA
Location:  35.24°N, 81.77°W
Report Text: KEHO 262115Z AUTO 00000KT 10SM CLR 11/04 A2999 RMK AO2 T01130043
Loading
Personal Weather Stations






























Interactive Weather Map New forecast layout! Learn more

10-Day Weather Forecast

Advertisements
Track Severe Weather on mobile